Nanci-mar — CUCU2 — position and weather

sailwx.info

Track history (hours):
 
Tides and Currents Weather Stations Pressure Air Temp Water Temp Dewpoint Dewpoint Depression Visibility Wind Speed Wind Dir Waves Ship Positions

Nanci-mar

Last reported at 2017-Oct-19 13:34 UTC. Time now 2017-Oct-19 20:08 UTC.
Position N 41°11' W 008°42'.

Length 17 m.

Type: Fishing. MMSI: 263408240.

Date/timePositionNaut miles runAvg speedWind from/ knotsBaromVisibWave heightAir tempDewpointWater temp
2017-Oct-19 13:34N 41°11' W 008°42'0 0.0
2017-Oct-19 13:31N 41°11' W 008°42'1 2.9
2017-Oct-19 13:00N 41°10' W 008°43'2 0.2
2017-Oct-18 23:45N 41°09' W 008°46'2 8.5
2017-Oct-18 23:30N 41°10' W 008°43'1 0.0
2017-Oct-17 14:47N 41°11' W 008°42'0 0.0
2017-Oct-17 14:30N 41°11' W 008°42'4 0.3
2017-Oct-16 23:54N 41°09' W 008°46'3 8.0
2017-Oct-16 23:30N 41°10' W 008°42'  
2017-Oct-13 14:10N 41°11' W 008°42'0 0.0
2017-Oct-13 14:01N 41°11' W 008°42'3 5.6
2017-Oct-13 13:30N 41°09' W 008°45'1 0.1
2017-Oct-12 23:51N 41°09' W 008°47'3 8.1
2017-Oct-12 23:31N 41°10' W 008°43'1 0.2
2017-Oct-12 15:21N 41°11' W 008°42'0 0.0
2017-Oct-12 15:00N 41°11' W 008°42'0 0.2
2017-Oct-12 14:30N 41°11' W 008°42'0 0.2
2017-Oct-12 14:00N 41°11' W 008°42'4 7.1
2017-Oct-12 13:30N 41°08' W 008°45'1 0.1
2017-Oct-11 23:54N 41°09' W 008°47'3 7.9
2017-Oct-11 23:30N 41°10' W 008°43'4 0.2
2017-Oct-10 23:57N 41°08' W 008°47'4 8.3
2017-Oct-10 23:31N 41°10' W 008°43'1 0.2
2017-Oct-10 16:32N 41°11' W 008°42'0 0.0
2017-Oct-10 16:30N 41°11' W 008°42'0 0.0
2017-Oct-10 16:00N 41°11' W 008°42'0 0.0
2017-Oct-10 15:30N 41°11' W 008°42'2 3.8
2017-Oct-10 15:00N 41°10' W 008°44'3 0.2
2017-Oct-10 00:17N 41°08' W 008°47'2 8.6
2017-Oct-10 00:00N 41°09' W 008°45'3 5.0
2017-Oct-09 23:30N 41°11' W 008°42'0 0.0
2017-Oct-09 16:05N 41°11' W 008°42'0 0.0
2017-Oct-09 16:00N 41°11' W 008°42'0 0.0
2017-Oct-09 15:30N 41°11' W 008°42'0 0.0
2017-Oct-09 15:00N 41°11' W 008°42'0 0.6
2017-Oct-09 14:30N 41°11' W 008°42'4 8.9
2017-Oct-09 14:00N 41°08' W 008°47'  
Track history (hours):
 
Tides and Currents Weather Stations Pressure Air Temp Water Temp Dewpoint Dewpoint Depression Visibility Wind Speed Wind Dir Waves Ship Positions

Nanci-mar

Last reported at 2017-Oct-19 13:34 UTC. Time now 2017-Oct-19 20:08 UTC.
Position N 41°11' W 008°42'.

Length 17 m.

Type: Fishing. MMSI: 263408240.

Date/timePositionNaut miles runAvg speedWind from/ knotsBaromVisibWave heightAir tempDewpointWater temp
2017-Oct-19 13:34N 41°11' W 008°42'0 0.0
2017-Oct-19 13:31N 41°11' W 008°42'1 2.9
2017-Oct-19 13:00N 41°10' W 008°43'2 0.2
2017-Oct-18 23:45N 41°09' W 008°46'2 8.5
2017-Oct-18 23:30N 41°10' W 008°43'1 0.0
2017-Oct-17 14:47N 41°11' W 008°42'0 0.0
2017-Oct-17 14:30N 41°11' W 008°42'4 0.3
2017-Oct-16 23:54N 41°09' W 008°46'3 8.0
2017-Oct-16 23:30N 41°10' W 008°42'  
2017-Oct-13 14:10N 41°11' W 008°42'0 0.0
2017-Oct-13 14:01N 41°11' W 008°42'3 5.6
2017-Oct-13 13:30N 41°09' W 008°45'1 0.1
2017-Oct-12 23:51N 41°09' W 008°47'3 8.1
2017-Oct-12 23:31N 41°10' W 008°43'1 0.2
2017-Oct-12 15:21N 41°11' W 008°42'0 0.0
2017-Oct-12 15:00N 41°11' W 008°42'0 0.2
2017-Oct-12 14:30N 41°11' W 008°42'0 0.2
2017-Oct-12 14:00N 41°11' W 008°42'4 7.1
2017-Oct-12 13:30N 41°08' W 008°45'1 0.1
2017-Oct-11 23:54N 41°09' W 008°47'3 7.9
2017-Oct-11 23:30N 41°10' W 008°43'4 0.2
2017-Oct-10 23:57N 41°08' W 008°47'4 8.3
2017-Oct-10 23:31N 41°10' W 008°43'1 0.2
2017-Oct-10 16:32N 41°11' W 008°42'0 0.0
2017-Oct-10 16:30N 41°11' W 008°42'0 0.0
2017-Oct-10 16:00N 41°11' W 008°42'0 0.0
2017-Oct-10 15:30N 41°11' W 008°42'2 3.8
2017-Oct-10 15:00N 41°10' W 008°44'3 0.2
2017-Oct-10 00:17N 41°08' W 008°47'2 8.6
2017-Oct-10 00:00N 41°09' W 008°45'3 5.0
2017-Oct-09 23:30N 41°11' W 008°42'0 0.0
2017-Oct-09 16:05N 41°11' W 008°42'0 0.0
2017-Oct-09 16:00N 41°11' W 008°42'0 0.0
2017-Oct-09 15:30N 41°11' W 008°42'0 0.0
2017-Oct-09 15:00N 41°11' W 008°42'0 0.6
2017-Oct-09 14:30N 41°11' W 008°42'4 8.9
2017-Oct-09 14:00N 41°08' W 008°47'  

Dump ship's entire track history